createdAt,value
2018-09-24T00:00:56.232Z,99.90
2018-09-24T00:03:24.323Z,99.90
2018-09-24T00:05:52.519Z,99.90
2018-09-24T00:08:20.690Z,99.90
2018-09-24T00:10:48.744Z,99.90
2018-09-24T00:13:16.895Z,99.90
2018-09-24T00:15:45.008Z,99.90
2018-09-24T00:18:13.097Z,99.90
2018-09-24T00:20:41.269Z,99.90
2018-09-24T00:23:09.590Z,99.90
2018-09-24T00:25:37.735Z,99.90
2018-09-24T00:28:05.841Z,99.90
2018-09-24T00:30:33.967Z,99.90
2018-09-24T00:33:02.083Z,99.90
2018-09-24T00:35:30.217Z,99.90
2018-09-24T00:37:58.416Z,99.90
2018-09-24T00:40:26.526Z,99.90
2018-09-24T00:42:54.706Z,99.90
2018-09-24T00:45:22.893Z,99.90
2018-09-24T00:47:50.980Z,99.90
2018-09-24T00:50:19.078Z,99.90
2018-09-24T00:52:47.154Z,99.90
2018-09-24T00:55:15.230Z,99.90
2018-09-24T00:57:43.298Z,99.90
2018-09-24T01:00:11.406Z,99.90
2018-09-24T01:02:39.519Z,99.90
2018-09-24T01:05:07.836Z,99.90
2018-09-24T01:07:35.949Z,99.90
2018-09-24T01:10:04.059Z,99.90
2018-09-24T01:12:32.198Z,99.90
2018-09-24T01:15:00.299Z,99.90
2018-09-24T01:17:28.491Z,99.90
2018-09-24T01:19:56.750Z,99.90
2018-09-24T01:22:24.903Z,99.90
2018-09-24T01:24:53.022Z,99.90
2018-09-24T01:27:21.124Z,99.90
2018-09-24T01:29:49.249Z,99.90
2018-09-24T01:32:17.380Z,99.90
2018-09-24T01:34:45.486Z,99.90
2018-09-24T01:37:13.660Z,99.90
2018-09-24T01:39:41.832Z,99.90
2018-09-24T01:42:10.210Z,99.90
2018-09-24T01:44:38.319Z,99.90
2018-09-24T01:47:06.883Z,99.90
2018-09-24T01:49:35.018Z,99.90
2018-09-24T01:52:03.151Z,99.90
2018-09-24T01:54:31.393Z,99.90
2018-09-24T01:56:59.521Z,99.90
2018-09-24T01:59:27.626Z,99.90
2018-09-24T02:01:55.772Z,99.90
2018-09-24T02:04:23.966Z,99.90
2018-09-24T02:06:57.167Z,99.90
2018-09-24T02:09:25.311Z,99.90
2018-09-24T02:11:53.412Z,99.90
2018-09-24T02:14:21.549Z,99.90
2018-09-24T02:16:49.668Z,99.90
2018-09-24T02:19:17.765Z,99.90
2018-09-24T02:21:45.900Z,99.90
2018-09-24T02:24:14.018Z,99.90
2018-09-24T02:26:42.111Z,99.90
2018-09-24T02:29:10.475Z,99.90
2018-09-24T02:31:39.713Z,99.90
2018-09-24T02:34:08.632Z,99.90
2018-09-24T02:36:36.807Z,99.90
2018-09-24T02:39:06.568Z,99.90
2018-09-24T02:41:34.682Z,99.90
2018-09-24T02:44:02.787Z,99.90
2018-09-24T02:46:30.930Z,99.90
2018-09-24T02:49:02.104Z,99.90
2018-09-24T02:51:30.621Z,99.90
2018-09-24T02:53:58.713Z,99.90
2018-09-24T02:56:26.905Z,99.90
2018-09-24T02:58:55.015Z,99.90
2018-09-24T03:01:23.180Z,99.90
2018-09-24T03:03:51.308Z,99.90
2018-09-24T03:06:19.477Z,99.90
2018-09-24T03:08:47.668Z,99.90
2018-09-24T03:11:15.747Z,99.90
2018-09-24T03:13:43.853Z,99.90
2018-09-24T03:16:11.944Z,99.90
2018-09-24T03:18:40.126Z,99.90
2018-09-24T03:21:08.320Z,99.90
2018-09-24T03:23:36.405Z,99.90
2018-09-24T03:26:04.603Z,99.90
2018-09-24T03:28:33.590Z,99.90
2018-09-24T03:31:01.694Z,99.90
2018-09-24T03:33:33.867Z,99.90
2018-09-24T03:36:01.972Z,99.90
2018-09-24T03:38:30.132Z,99.90
2018-09-24T03:40:58.285Z,99.90
2018-09-24T03:43:26.380Z,99.90
2018-09-24T03:45:54.496Z,99.90
2018-09-24T03:48:22.650Z,99.90
2018-09-24T03:50:50.723Z,99.90
2018-09-24T03:53:18.843Z,99.90
2018-09-24T03:55:47.014Z,99.90
2018-09-24T03:58:15.112Z,99.90
2018-09-24T04:00:43.200Z,99.90
2018-09-24T04:03:11.324Z,99.90
2018-09-24T04:05:44.822Z,99.90
2018-09-24T04:08:18.447Z,99.90
2018-09-24T04:10:51.959Z,99.90
2018-09-24T04:13:25.349Z,99.90
2018-09-24T04:15:58.912Z,99.90
2018-09-24T04:18:32.479Z,99.90
2018-09-24T04:21:05.971Z,99.90
2018-09-24T04:23:39.697Z,99.90
2018-09-24T04:26:13.332Z,99.90
2018-09-24T04:28:46.873Z,99.90
2018-09-24T04:31:20.474Z,99.90
2018-09-24T04:33:54.000Z,99.90
2018-09-24T04:36:27.442Z,99.90
2018-09-24T04:39:01.008Z,99.90
2018-09-24T04:41:34.602Z,99.90
2018-09-24T04:44:08.072Z,99.90
2018-09-24T04:46:41.518Z,99.90
2018-09-24T04:49:15.214Z,99.90
2018-09-24T04:51:48.652Z,99.90
2018-09-24T04:54:22.268Z,99.90
2018-09-24T04:56:55.880Z,99.90
2018-09-24T04:59:29.416Z,99.90
2018-09-24T05:02:03.034Z,99.90
2018-09-24T05:04:36.681Z,99.90
2018-09-24T05:07:10.343Z,99.90
2018-09-24T05:09:44.408Z,99.90
2018-09-24T05:12:17.869Z,99.90
2018-09-24T05:14:51.366Z,99.90
2018-09-24T05:17:25.069Z,99.90
2018-09-24T05:19:58.772Z,99.90
2018-09-24T05:22:32.251Z,99.90
2018-09-24T05:25:05.969Z,99.90
2018-09-24T05:27:39.499Z,99.90
2018-09-24T05:30:12.994Z,99.90
2018-09-24T05:32:46.466Z,99.90
2018-09-24T05:35:20.047Z,99.90
2018-09-24T05:37:53.498Z,99.90
2018-09-24T05:40:27.190Z,99.90
2018-09-24T05:43:00.818Z,99.90
2018-09-24T05:45:34.351Z,99.90
2018-09-24T05:48:07.830Z,99.90
2018-09-24T05:50:41.478Z,99.90
2018-09-24T05:53:14.998Z,99.90
2018-09-24T05:55:48.716Z,99.90
2018-09-24T05:58:22.213Z,99.90
2018-09-24T06:00:55.850Z,99.90
2018-09-24T06:03:29.679Z,99.60
2018-09-24T06:06:03.368Z,99.80
2018-09-24T06:08:36.799Z,99.70
2018-09-24T06:11:10.455Z,99.70
2018-09-24T06:13:44.228Z,99.20
2018-09-24T06:16:17.796Z,99.00
2018-09-24T06:18:51.422Z,98.30
2018-09-24T06:21:25.133Z,98.60
2018-09-24T06:23:58.694Z,98.50
2018-09-24T06:29:20.580Z,97.70
2018-09-24T06:31:54.244Z,97.40
2018-09-24T06:34:27.837Z,97.50
2018-09-24T06:37:01.407Z,97.10
2018-09-24T06:39:35.016Z,96.50
2018-09-24T06:42:08.564Z,95.70
2018-09-24T06:44:42.180Z,95.30
2018-09-24T06:47:15.720Z,94.70
2018-09-24T06:49:49.418Z,94.20
2018-09-24T06:52:23.193Z,92.20
2018-09-24T06:54:56.707Z,91.40
2018-09-24T06:57:30.284Z,90.80
2018-09-24T07:00:03.795Z,90.60
2018-09-24T07:02:37.532Z,89.30
2018-09-24T07:05:11.252Z,89.30
2018-09-24T07:07:44.865Z,90.30
2018-09-24T07:10:18.771Z,90.60
2018-09-24T07:12:52.436Z,90.50
2018-09-24T07:15:26.114Z,90.70
2018-09-24T07:18:00.371Z,90.90
2018-09-24T07:20:34.091Z,91.20
2018-09-24T07:23:07.759Z,91.40
2018-09-24T07:25:41.290Z,91.20
2018-09-24T07:28:15.115Z,91.30
2018-09-24T07:30:48.572Z,91.30
2018-09-24T07:33:22.407Z,90.90
2018-09-24T07:35:55.921Z,90.30
2018-09-24T07:38:29.541Z,90.50
2018-09-24T07:41:03.084Z,90.50
2018-09-24T07:43:36.851Z,88.90
2018-09-24T07:46:10.311Z,88.60
2018-09-24T07:48:43.795Z,87.60
2018-09-24T07:51:17.410Z,87.30
2018-09-24T07:53:50.933Z,86.50
2018-09-24T07:56:24.481Z,86.70
2018-09-24T07:58:58.084Z,86.70
2018-09-24T08:01:31.562Z,86.00
2018-09-24T08:04:05.131Z,85.80
2018-09-24T08:06:38.801Z,84.90
2018-09-24T08:09:12.947Z,85.00
2018-09-24T08:11:46.622Z,84.10
2018-09-24T08:14:20.404Z,83.30
2018-09-24T08:16:54.031Z,82.40
2018-09-24T08:19:27.584Z,81.80
2018-09-24T08:22:01.023Z,81.50
2018-09-24T08:24:34.660Z,81.40
2018-09-24T08:27:08.201Z,80.30
2018-09-24T08:29:41.930Z,79.50
2018-09-24T08:32:15.647Z,79.10
2018-09-24T08:34:49.331Z,79.30
2018-09-24T08:37:22.939Z,79.00
2018-09-24T08:40:03.603Z,78.50
2018-09-24T08:42:37.162Z,78.30
2018-09-24T08:45:10.793Z,76.00
2018-09-24T08:47:44.359Z,75.10
2018-09-24T08:50:17.914Z,75.30
2018-09-24T08:52:51.502Z,74.70
2018-09-24T08:55:25.257Z,73.70
2018-09-24T08:57:58.917Z,74.30
2018-09-24T09:00:32.656Z,74.50
2018-09-24T09:03:06.323Z,74.20
2018-09-24T09:05:40.057Z,73.70
2018-09-24T09:08:13.683Z,74.10
2018-09-24T09:10:47.212Z,73.30
2018-09-24T09:13:21.090Z,72.80
2018-09-24T09:15:54.563Z,72.20
2018-09-24T09:18:28.012Z,72.70
2018-09-24T09:21:01.807Z,72.70
2018-09-24T09:23:35.439Z,71.10
2018-09-24T09:26:09.141Z,71.20
2018-09-24T09:28:42.750Z,69.20
2018-09-24T09:31:16.195Z,70.80
2018-09-24T09:33:49.853Z,69.60
2018-09-24T09:36:23.604Z,69.00
2018-09-24T09:38:57.069Z,69.50
2018-09-24T09:41:30.679Z,66.50
2018-09-24T09:44:04.413Z,66.20
2018-09-24T09:46:37.829Z,66.80
2018-09-24T09:49:12.206Z,66.90
2018-09-24T09:51:45.867Z,66.90
2018-09-24T09:54:19.814Z,66.00
2018-09-24T09:56:53.448Z,68.00
2018-09-24T09:59:26.978Z,67.00
2018-09-24T10:02:00.412Z,67.00
2018-09-24T10:04:33.981Z,65.90
2018-09-24T10:07:07.307Z,65.80
2018-09-24T10:09:41.018Z,66.10
2018-09-24T10:12:14.584Z,66.30
2018-09-24T10:14:48.202Z,64.40
2018-09-24T10:17:21.754Z,63.80
2018-09-24T10:19:55.473Z,63.40
2018-09-24T10:22:29.026Z,63.30
2018-09-24T10:25:02.512Z,60.70
2018-09-24T10:27:36.020Z,61.10
2018-09-24T10:30:09.416Z,61.80
2018-09-24T10:32:43.019Z,62.30
2018-09-24T10:35:16.573Z,62.00
2018-09-24T10:37:50.222Z,62.30
2018-09-24T10:40:23.808Z,62.80
2018-09-24T10:42:57.355Z,62.60
2018-09-24T10:45:30.858Z,62.60
2018-09-24T10:48:04.500Z,61.70
2018-09-24T10:50:38.180Z,62.70
2018-09-24T10:53:12.024Z,61.00
2018-09-24T10:55:45.707Z,60.30
2018-09-24T10:58:19.123Z,59.60
2018-09-24T11:00:52.574Z,58.90
2018-09-24T11:03:26.307Z,58.30
2018-09-24T11:05:59.940Z,58.40
2018-09-24T11:08:33.461Z,57.60
2018-09-24T11:11:07.196Z,58.10
2018-09-24T11:13:40.833Z,56.60
2018-09-24T11:16:14.563Z,56.80
2018-09-24T11:18:47.864Z,55.30
2018-09-24T11:21:21.594Z,54.80
2018-09-24T11:23:55.159Z,54.60
2018-09-24T11:29:02.205Z,52.90
2018-09-24T11:31:35.768Z,53.00
2018-09-24T11:34:09.332Z,52.80
2018-09-24T11:36:42.802Z,53.30
2018-09-24T11:39:16.419Z,52.40
2018-09-24T11:41:49.840Z,55.80
2018-09-24T11:44:23.440Z,58.50
2018-09-24T11:46:57.140Z,60.00
2018-09-24T11:49:30.516Z,62.20
2018-09-24T11:52:04.036Z,64.60
2018-09-24T11:54:37.442Z,69.60
2018-09-24T11:57:11.145Z,72.10
2018-09-24T11:59:44.632Z,76.20
2018-09-24T12:02:18.116Z,78.20
2018-09-24T12:04:51.813Z,83.20
2018-09-24T12:07:25.259Z,83.70
2018-09-24T12:09:58.823Z,85.30
2018-09-24T12:12:32.376Z,86.20
2018-09-24T12:15:06.090Z,87.80
2018-09-24T12:17:39.710Z,88.70
2018-09-24T12:20:13.072Z,89.30
2018-09-24T12:22:46.639Z,90.90
2018-09-24T12:25:20.324Z,90.00
2018-09-24T12:27:53.876Z,90.80
2018-09-24T12:30:27.363Z,91.50
2018-09-24T12:33:01.040Z,91.40
2018-09-24T12:35:34.635Z,90.10
2018-09-24T12:38:08.340Z,91.00
2018-09-24T12:40:41.700Z,93.50
2018-09-24T12:43:15.375Z,93.60
2018-09-24T12:45:48.958Z,93.00
2018-09-24T12:48:22.602Z,92.40
2018-09-24T12:50:56.163Z,91.80
2018-09-24T12:53:30.006Z,92.60
2018-09-24T12:56:03.644Z,92.80
2018-09-24T12:58:37.209Z,92.30
2018-09-24T13:01:10.886Z,93.00
2018-09-24T13:03:44.416Z,93.30
2018-09-24T13:06:18.120Z,92.70
2018-09-24T13:08:51.596Z,91.00
2018-09-24T13:11:25.147Z,92.40
2018-09-24T13:13:58.839Z,91.40
2018-09-24T13:16:33.276Z,90.30
2018-09-24T13:19:06.888Z,88.20
2018-09-24T13:21:40.312Z,87.20
2018-09-24T13:24:13.769Z,86.80
2018-09-24T13:26:47.363Z,87.40
2018-09-24T13:29:20.905Z,85.50
2018-09-24T13:31:54.501Z,85.70
2018-09-24T13:34:28.203Z,85.80
2018-09-24T13:37:01.877Z,83.70
2018-09-24T13:39:35.417Z,86.10
2018-09-24T13:42:08.983Z,87.00
2018-09-24T13:44:42.647Z,86.00
2018-09-24T13:47:16.183Z,82.70
2018-09-24T13:49:49.955Z,83.80
2018-09-24T13:52:23.613Z,84.10
2018-09-24T13:54:57.298Z,84.20
2018-09-24T13:57:30.940Z,82.30
2018-09-24T14:00:04.432Z,84.00
2018-09-24T14:02:41.690Z,82.00
2018-09-24T14:05:15.342Z,79.40
2018-09-24T14:07:49.027Z,78.30
2018-09-24T14:10:22.726Z,77.80
2018-09-24T14:12:56.408Z,78.90
2018-09-24T14:15:29.933Z,77.70
2018-09-24T14:18:03.652Z,74.50
2018-09-24T14:20:37.159Z,73.00
2018-09-24T14:23:10.735Z,75.10
2018-09-24T14:25:44.306Z,72.00
2018-09-24T14:28:18.000Z,68.90
2018-09-24T14:30:51.496Z,69.90
2018-09-24T14:33:25.215Z,68.60
2018-09-24T14:35:58.877Z,69.00
2018-09-24T14:38:32.313Z,69.60
2018-09-24T14:41:05.997Z,70.30
2018-09-24T14:43:39.977Z,69.60
2018-09-24T14:46:13.738Z,69.40
2018-09-24T14:48:47.237Z,68.80
2018-09-24T14:51:20.669Z,69.00
2018-09-24T14:53:54.316Z,68.80
2018-09-24T14:56:27.912Z,69.90
2018-09-24T14:59:01.423Z,69.50
2018-09-24T15:01:35.027Z,69.90
2018-09-24T15:04:08.697Z,70.20
2018-09-24T15:06:42.308Z,70.60
2018-09-24T15:09:15.953Z,70.10
2018-09-24T15:11:49.637Z,71.60
2018-09-24T15:14:23.860Z,74.40
2018-09-24T15:16:57.389Z,74.50
2018-09-24T15:19:30.989Z,74.00
2018-09-24T15:22:04.874Z,75.10
2018-09-24T15:24:38.578Z,75.40
2018-09-24T15:27:12.245Z,75.30
2018-09-24T15:29:45.971Z,75.90
2018-09-24T15:32:19.450Z,76.70
2018-09-24T15:34:52.929Z,78.90
2018-09-24T15:37:26.517Z,78.40
2018-09-24T15:40:00.134Z,78.60
2018-09-24T15:42:33.764Z,78.70
2018-09-24T15:45:07.239Z,77.20
2018-09-24T15:47:40.814Z,76.70
2018-09-24T15:50:14.558Z,75.80
2018-09-24T15:52:48.256Z,75.00
2018-09-24T15:55:21.775Z,75.80
2018-09-24T15:57:55.325Z,75.60
2018-09-24T16:00:28.969Z,75.60
2018-09-24T16:03:02.527Z,76.10
2018-09-24T16:05:36.868Z,75.00
2018-09-24T16:08:10.555Z,76.40
2018-09-24T16:10:44.137Z,73.90
2018-09-24T16:13:17.703Z,74.10
2018-09-24T16:15:51.538Z,74.80
2018-09-24T16:18:25.104Z,74.00
2018-09-24T16:20:58.773Z,75.90
2018-09-24T16:23:32.252Z,75.40
2018-09-24T16:26:05.751Z,74.50
2018-09-24T16:28:39.307Z,74.30
2018-09-24T16:31:12.715Z,74.70
2018-09-24T16:33:46.274Z,73.70
2018-09-24T16:36:19.808Z,73.50
2018-09-24T16:38:53.491Z,73.30
2018-09-24T16:41:27.214Z,73.20
2018-09-24T16:44:00.944Z,74.30
2018-09-24T16:46:34.649Z,74.50
2018-09-24T16:49:08.332Z,74.70
2018-09-24T16:51:42.017Z,75.20
2018-09-24T16:54:15.768Z,74.10
2018-09-24T16:56:49.423Z,73.70
2018-09-24T16:59:22.988Z,75.00
2018-09-24T17:01:56.477Z,75.70
2018-09-24T17:04:30.175Z,74.80
2018-09-24T17:07:03.768Z,75.30
2018-09-24T17:09:37.336Z,74.30
2018-09-24T17:12:11.529Z,74.00
2018-09-24T17:14:44.828Z,72.50
2018-09-24T17:17:18.493Z,71.20
2018-09-24T17:19:52.131Z,69.60
2018-09-24T17:22:25.731Z,70.60
2018-09-24T17:24:59.460Z,71.60
2018-09-24T17:27:33.146Z,72.20
2018-09-24T17:30:06.808Z,72.80
2018-09-24T17:32:40.441Z,73.30
2018-09-24T17:35:14.030Z,73.80
2018-09-24T17:37:47.591Z,73.20
2018-09-24T17:40:21.162Z,73.40
2018-09-24T17:42:54.978Z,72.50
2018-09-24T17:45:28.555Z,73.20
2018-09-24T17:48:02.046Z,73.40
2018-09-24T17:50:35.634Z,73.90
2018-09-24T17:53:09.180Z,74.00
2018-09-24T17:55:42.798Z,74.40
2018-09-24T17:58:16.505Z,74.50
2018-09-24T18:00:50.090Z,75.00
2018-09-24T18:03:23.578Z,75.80
2018-09-24T18:05:57.083Z,76.50
2018-09-24T18:08:30.541Z,76.80
2018-09-24T18:11:04.107Z,77.70
2018-09-24T18:13:37.895Z,76.50
2018-09-24T18:16:11.776Z,77.70
2018-09-24T18:18:45.399Z,76.40
2018-09-24T18:21:18.760Z,76.70
2018-09-24T18:23:52.259Z,76.30
2018-09-24T18:26:25.824Z,76.90
2018-09-24T18:28:59.508Z,77.20
2018-09-24T18:31:33.264Z,76.30
2018-09-24T18:34:06.942Z,76.30
2018-09-24T18:36:40.257Z,76.60
2018-09-24T18:39:14.785Z,75.90
2018-09-24T18:41:48.458Z,75.20
2018-09-24T18:44:22.225Z,74.80
2018-09-24T18:46:55.837Z,75.30
2018-09-24T18:49:29.397Z,75.80
2018-09-24T18:52:02.952Z,76.10
2018-09-24T18:54:36.697Z,76.90
2018-09-24T18:57:10.192Z,77.30
2018-09-24T18:59:43.793Z,77.90
2018-09-24T19:02:17.399Z,78.40
2018-09-24T19:04:51.034Z,78.80
2018-09-24T19:07:24.674Z,78.90
2018-09-24T19:09:58.283Z,78.60
2018-09-24T19:12:32.147Z,78.60
2018-09-24T19:15:05.612Z,78.80
2018-09-24T19:17:39.280Z,78.80
2018-09-24T19:20:12.714Z,79.50
2018-09-24T19:22:46.366Z,79.70
2018-09-24T19:25:19.990Z,80.20
2018-09-24T19:27:53.629Z,81.50
2018-09-24T19:30:27.259Z,82.20
2018-09-24T19:33:00.784Z,81.00
2018-09-24T19:35:34.413Z,80.20
2018-09-24T19:38:07.995Z,80.30
2018-09-24T19:40:41.667Z,79.20
2018-09-24T19:43:15.319Z,79.40
2018-09-24T19:45:48.853Z,77.00
2018-09-24T19:48:22.437Z,77.30
2018-09-24T19:50:56.059Z,77.50
2018-09-24T19:53:29.702Z,77.20
2018-09-24T19:56:03.065Z,76.40
2018-09-24T19:58:36.782Z,77.60
2018-09-24T20:01:10.347Z,77.30
2018-09-24T20:03:43.916Z,77.50
2018-09-24T20:06:17.540Z,75.80
2018-09-24T20:08:51.075Z,74.90
2018-09-24T20:11:24.656Z,74.80
2018-09-24T20:13:58.198Z,74.00
2018-09-24T20:16:31.758Z,75.10
2018-09-24T20:19:05.314Z,73.90
2018-09-24T20:21:39.047Z,73.90
2018-09-24T20:24:12.644Z,74.30
2018-09-24T20:26:46.345Z,74.70
2018-09-24T20:29:20.052Z,74.00
2018-09-24T20:31:53.800Z,75.10
2018-09-24T20:34:28.730Z,74.70
2018-09-24T20:37:02.301Z,75.00
2018-09-24T20:39:35.909Z,75.60
2018-09-24T20:42:09.471Z,75.90
2018-09-24T20:44:43.104Z,74.10
2018-09-24T20:47:16.683Z,73.90
2018-09-24T20:49:50.147Z,74.10
2018-09-24T20:52:23.663Z,74.30
2018-09-24T20:54:57.206Z,75.20
2018-09-24T20:57:30.712Z,75.50
2018-09-24T21:00:04.259Z,75.00
2018-09-24T21:02:37.908Z,75.80
2018-09-24T21:05:11.428Z,76.10
2018-09-24T21:07:45.369Z,76.80
2018-09-24T21:10:18.968Z,76.10
2018-09-24T21:12:52.720Z,76.20
2018-09-24T21:15:26.395Z,77.00
2018-09-24T21:18:00.057Z,76.50
2018-09-24T21:20:33.569Z,77.20
2018-09-24T21:23:07.132Z,76.90
2018-09-24T21:25:40.745Z,77.00
2018-09-24T21:28:14.171Z,76.80
2018-09-24T21:30:47.674Z,76.80
2018-09-24T21:33:21.235Z,76.80
2018-09-24T21:35:54.632Z,76.30
2018-09-24T21:38:28.218Z,77.60
2018-09-24T21:41:01.678Z,77.40
2018-09-24T21:43:35.598Z,77.70
2018-09-24T21:46:09.280Z,78.00
2018-09-24T21:48:42.690Z,78.60
2018-09-24T21:51:16.334Z,78.90
2018-09-24T21:53:49.973Z,79.10
2018-09-24T21:56:23.524Z,79.50
2018-09-24T21:58:57.021Z,79.80
2018-09-24T22:01:30.664Z,80.10
2018-09-24T22:04:04.536Z,80.50
2018-09-24T22:06:38.038Z,81.30
2018-09-24T22:09:13.500Z,81.50
2018-09-24T22:11:47.090Z,82.10
2018-09-24T22:14:20.678Z,82.10
2018-09-24T22:16:54.322Z,82.10
2018-09-24T22:19:27.929Z,82.40
2018-09-24T22:22:01.599Z,83.60
2018-09-24T22:24:35.254Z,82.90
2018-09-24T22:27:08.672Z,82.90
2018-09-24T22:29:42.372Z,82.90
2018-09-24T22:32:15.884Z,83.00
2018-09-24T22:34:49.782Z,83.40
2018-09-24T22:37:23.421Z,83.40
2018-09-24T22:39:57.017Z,83.90
2018-09-24T22:42:30.652Z,84.80
2018-09-24T22:45:04.385Z,84.80
2018-09-24T22:47:38.034Z,85.40
2018-09-24T22:50:11.583Z,85.40
2018-09-24T22:52:45.056Z,85.80
2018-09-24T22:55:18.570Z,85.50
2018-09-24T22:57:51.994Z,86.10
2018-09-24T23:00:25.513Z,86.80
2018-09-24T23:02:59.123Z,86.40
2018-09-24T23:05:32.439Z,86.80
2018-09-24T23:08:06.071Z,87.10
2018-09-24T23:10:40.057Z,86.80
2018-09-24T23:13:13.479Z,87.10
2018-09-24T23:15:46.940Z,87.90
2018-09-24T23:18:20.483Z,87.80
2018-09-24T23:20:54.057Z,87.90
2018-09-24T23:23:27.677Z,88.10
2018-09-24T23:26:01.240Z,88.30
2018-09-24T23:28:34.747Z,89.00
2018-09-24T23:31:08.284Z,89.90
2018-09-24T23:33:41.796Z,89.90
2018-09-24T23:36:15.252Z,90.20
2018-09-24T23:38:48.880Z,90.10
2018-09-24T23:41:22.699Z,90.40
2018-09-24T23:43:56.271Z,90.50
2018-09-24T23:46:29.930Z,90.50
2018-09-24T23:49:03.442Z,90.70
2018-09-24T23:51:36.884Z,90.90
2018-09-24T23:54:10.526Z,91.10
2018-09-24T23:56:44.117Z,91.20
2018-09-24T23:59:17.735Z,91.30
